Time;durP1;ratioP1;P1;durP2;ratioP2;P2;SDS_P1;SDS_P2;PMS_P1;PMS_P2;Temp;Humidity;BMP_temperature;BMP_pressure;BME280_temperature;BME280_humidity;BME280_pressure;Samples;Min_cycle;Max_cycle;Signal;HPM_P1;HPM_P2
2021/09/16 00:04:51;;;;;;;4.32;1.20;;;;;;;13.82;100.00;101394.47;10497775;28;20055;-59
2021/09/16 00:09:53;;;;;;;6.32;1.52;;;;;;;13.97;100.00;101387.44;10497582;28;20045;-59
2021/09/16 00:14:56;;;;;;;6.20;2.85;;;;;;;13.75;100.00;101390.50;10497480;28;20136;-58
2021/09/16 00:19:58;;;;;;;9.48;1.90;;;;;;;13.78;100.00;101382.44;10497479;28;20059;-59
2021/09/16 00:25:01;;;;;;;4.05;1.48;;;;;;;13.98;100.00;101397.00;10497342;28;20056;-59
2021/09/16 00:30:05;;;;;;;3.78;1.38;;;;;;;13.80;100.00;101399.00;10497034;28;20052;-58
2021/09/16 00:35:08;;;;;;;9.68;1.42;;;;;;;13.69;100.00;101397.00;10496925;28;20389;-60
2021/09/16 00:40:11;;;;;;;2.88;1.30;;;;;;;13.85;100.00;101396.06;10500513;28;20502;-60
2021/09/16 00:45:14;;;;;;;11.35;1.75;;;;;;;13.70;100.00;101396.06;10504566;28;20053;-60
2021/09/16 00:50:20;;;;;;;10.10;1.70;;;;;;;13.79;100.00;101399.09;10504668;28;20049;-60
2021/09/16 00:55:24;;;;;;;5.18;1.35;;;;;;;13.80;100.00;101406.03;10504292;28;20048;-60
2021/09/16 01:00:26;;;;;;;10.45;2.30;;;;;;;13.77;100.00;101395.69;10502564;28;20041;-60
2021/09/16 01:05:29;;;;;;;6.07;1.50;;;;;;;13.74;100.00;101402.00;10503975;28;20051;-60
2021/09/16 01:10:31;;;;;;;4.82;1.52;;;;;;;13.66;100.00;101402.44;10503678;28;20044;-60
2021/09/16 01:15:34;;;;;;;7.20;2.03;;;;;;;13.86;100.00;101403.03;10502741;28;20044;-60
2021/09/16 01:20:36;;;;;;;3.47;1.65;;;;;;;13.81;100.00;101410.38;10503041;28;20481;-60
2021/09/16 01:25:38;;;;;;;8.10;2.45;;;;;;;13.49;100.00;101413.16;10503451;28;20048;-60
2021/09/16 01:30:41;;;;;;;8.32;2.08;;;;;;;13.63;100.00;101412.31;10502584;28;20063;-60
2021/09/16 01:35:43;;;;;;;7.10;1.80;;;;;;;13.88;100.00;101407.25;10501693;28;20412;-60
2021/09/16 01:40:46;;;;;;;9.82;2.15;;;;;;;13.93;100.00;101405.16;10502127;28;20045;-60
2021/09/16 01:45:48;;;;;;;9.95;2.28;;;;;;;13.89;100.00;101414.22;10502194;28;20047;-60
2021/09/16 01:50:50;;;;;;;9.00;2.05;;;;;;;13.87;100.00;101405.56;10501085;28;20059;-60
2021/09/16 01:55:53;;;;;;;6.72;1.90;;;;;;;13.89;100.00;101408.94;10501548;28;20382;-60
2021/09/16 02:00:55;;;;;;;4.13;2.30;;;;;;;13.68;100.00;101405.81;10501538;28;20049;-59
2021/09/16 02:05:58;;;;;;;6.88;2.55;;;;;;;13.55;100.00;101412.81;10502077;28;20056;-60
2021/09/16 02:11:00;;;;;;;5.40;2.50;;;;;;;13.53;100.00;101412.88;10500467;28;20041;-59
2021/09/16 02:16:03;;;;;;;5.93;2.00;;;;;;;13.57;100.00;101418.81;10501251;28;20049;-62
2021/09/16 02:21:05;;;;;;;8.00;2.90;;;;;;;13.41;100.00;101424.13;10500874;28;20455;-60
2021/09/16 02:26:08;;;;;;;6.25;2.58;;;;;;;13.40;100.00;101434.72;10500816;28;20056;-60
2021/09/16 02:31:10;;;;;;;4.90;2.45;;;;;;;13.35;100.00;101435.88;10500131;28;20052;-60
2021/09/16 02:36:12;;;;;;;8.30;3.22;;;;;;;13.37;100.00;101441.03;10500387;28;20053;-60
2021/09/16 02:41:15;;;;;;;8.10;3.00;;;;;;;13.25;100.00;101436.47;10499995;28;20045;-60
2021/09/16 02:46:17;;;;;;;12.18;4.13;;;;;;;13.20;100.00;101431.47;10499664;28;20435;-59
2021/09/16 02:51:19;;;;;;;7.47;2.55;;;;;;;13.33;100.00;101431.63;10499431;28;20115;-60
2021/09/16 02:56:22;;;;;;;8.10;3.55;;;;;;;13.26;100.00;101433.72;10499382;28;20048;-59
2021/09/16 03:01:24;;;;;;;5.15;2.92;;;;;;;13.56;100.00;101439.00;10499241;28;20044;-60
2021/09/16 03:06:26;;;;;;;9.52;3.72;;;;;;;13.24;100.00;101435.59;10499216;28;20056;-59
2021/09/16 03:11:29;;;;;;;5.57;3.45;;;;;;;13.26;100.00;101443.41;10498797;28;20040;-59
2021/09/16 03:16:31;;;;;;;7.40;4.28;;;;;;;13.29;100.00;101451.97;10498838;28;20059;-59
2021/09/16 03:21:34;;;;;;;9.18;5.50;;;;;;;13.60;100.00;101452.84;10498221;28;20068;-60
2021/09/16 03:26:36;;;;;;;7.95;4.07;;;;;;;13.63;100.00;101452.63;10498670;28;20048;-59
2021/09/16 03:31:38;;;;;;;11.13;5.85;;;;;;;13.31;100.00;101465.03;10498244;28;20056;-59
2021/09/16 03:36:40;;;;;;;11.68;5.90;;;;;;;13.26;100.00;101462.66;10498067;28;20373;-60
2021/09/16 03:41:43;;;;;;;7.05;4.85;;;;;;;13.73;100.00;101466.94;10497790;28;20044;-60
2021/09/16 03:46:45;;;;;;;10.45;4.95;;;;;;;13.60;100.00;101455.47;10497990;28;20052;-59
2021/09/16 03:51:48;;;;;;;6.85;5.50;;;;;;;13.88;100.00;101451.16;10498084;28;20044;-60
2021/09/16 03:56:50;;;;;;;8.02;5.32;;;;;;;13.50;100.00;101451.66;10497136;28;20049;-60
2021/09/16 04:01:52;;;;;;;8.55;4.70;;;;;;;13.54;100.00;101454.03;10497842;28;20045;-59
2021/09/16 04:06:54;;;;;;;6.80;4.60;;;;;;;13.80;100.00;101456.91;10497627;28;20049;-59
2021/09/16 04:11:57;;;;;;;7.65;5.85;;;;;;;13.58;100.00;101465.22;10497620;28;20041;-59
2021/09/16 04:16:59;;;;;;;8.45;5.00;;;;;;;13.59;100.00;101461.66;10505042;28;20052;-60
2021/09/16 04:22:02;;;;;;;9.82;5.30;;;;;;;13.62;100.00;101464.09;10505338;28;20427;-60
2021/09/16 04:27:04;;;;;;;6.43;5.32;;;;;;;13.65;100.00;101463.94;10505602;28;20404;-59
2021/09/16 04:32:07;;;;;;;8.07;4.93;;;;;;;13.52;100.00;101469.06;10503798;28;20412;-59
2021/09/16 04:37:09;;;;;;;11.73;6.35;;;;;;;13.46;100.00;101472.03;10505308;28;20071;-60
2021/09/16 04:42:12;;;;;;;10.60;5.40;;;;;;;13.50;100.00;101470.94;10505041;28;20052;-60
2021/09/16 04:47:14;;;;;;;13.05;5.53;;;;;;;13.48;100.00;101464.06;10504194;28;20075;-61
2021/09/16 04:52:16;;;;;;;13.20;5.57;;;;;;;13.19;100.00;101467.41;10504832;28;20049;-60
2021/09/16 04:57:19;;;;;;;14.82;5.78;;;;;;;13.44;100.00;101462.56;10504127;28;20049;-60
2021/09/16 05:02:21;;;;;;;12.82;6.45;;;;;;;13.19;100.00;101471.84;10503838;28;20056;-60
2021/09/16 05:07:24;;;;;;;9.40;4.68;;;;;;;13.59;100.00;101469.53;10503641;28;20049;-60
2021/09/16 05:12:26;;;;;;;7.00;5.40;;;;;;;13.37;100.00;101467.34;10503367;28;20040;-60
2021/09/16 05:17:29;;;;;;;9.38;6.07;;;;;;;13.38;100.00;101474.28;10503555;28;20424;-60
2021/09/16 05:22:32;;;;;;;12.55;6.28;;;;;;;13.28;100.00;101484.47;10503229;28;20048;-60
2021/09/16 05:27:34;;;;;;;9.98;7.07;;;;;;;13.06;100.00;101476.94;10501622;28;20405;-60
2021/09/16 05:32:38;;;;;;;8.32;5.93;;;;;;;13.25;100.00;101487.28;10502972;28;20048;-60
2021/09/16 05:37:40;;;;;;;8.63;4.72;;;;;;;13.35;100.00;101490.25;10502401;28;20492;-60
2021/09/16 05:42:43;;;;;;;12.25;5.75;;;;;;;13.46;100.00;101487.81;10502738;28;20045;-60
2021/09/16 05:47:46;;;;;;;9.05;5.20;;;;;;;13.21;100.00;101491.00;10502205;28;20041;-59
2021/09/16 05:52:48;;;;;;;8.43;5.55;;;;;;;13.43;100.00;101502.94;10502197;28;20048;-60
2021/09/16 05:57:51;;;;;;;8.02;4.50;;;;;;;13.59;100.00;101508.16;10501579;28;20048;-60
2021/09/16 06:02:53;;;;;;;8.75;4.22;;;;;;;13.57;100.00;101505.63;10501547;28;20045;-60
2021/09/16 06:07:56;;;;;;;9.15;5.20;;;;;;;13.60;100.00;101517.75;10501180;28;20436;-60
2021/09/16 06:12:58;;;;;;;9.02;6.00;;;;;;;13.31;100.00;101507.94;10501495;28;20051;-59
2021/09/16 06:18:01;;;;;;;8.35;5.18;;;;;;;13.43;100.00;101522.22;10500775;28;20056;-60
2021/09/16 06:23:03;;;;;;;7.78;5.07;;;;;;;13.55;100.00;101532.03;10501338;28;20048;-60
2021/09/16 06:28:05;;;;;;;10.00;7.03;;;;;;;13.42;100.00;101527.56;10500352;28;20041;-59
2021/09/16 06:33:10;;;;;;;9.07;5.70;;;;;;;13.36;100.00;101534.88;10500396;28;20044;-60
2021/09/16 06:38:13;;;;;;;12.68;5.22;;;;;;;13.55;100.00;101533.81;10500373;28;20075;-60
2021/09/16 06:43:15;;;;;;;6.82;4.75;;;;;;;13.59;100.00;101543.22;10500150;28;20076;-60
2021/09/16 06:48:18;;;;;;;7.93;6.00;;;;;;;13.36;100.00;101545.41;10499610;28;20056;-60
2021/09/16 06:53:21;;;;;;;7.28;4.63;;;;;;;13.50;100.00;101551.63;10499659;28;20070;-60
2021/09/16 06:58:24;;;;;;;13.77;6.82;;;;;;;13.15;100.00;101550.06;10498976;28;20051;-61
2021/09/16 07:03:26;;;;;;;9.40;5.20;;;;;;;13.55;100.00;101550.44;10499400;28;20373;-60
2021/09/16 07:08:29;;;;;;;6.88;5.43;;;;;;;13.48;100.00;101549.09;10498698;28;20076;-62
2021/09/16 07:13:32;;;;;;;8.40;5.07;;;;;;;14.06;100.00;101554.50;10497990;28;20047;-61
2021/09/16 07:18:34;;;;;;;7.72;4.93;;;;;;;14.19;100.00;101549.31;10498678;28;20048;-59
2021/09/16 07:23:37;;;;;;;7.60;4.63;;;;;;;14.66;100.00;101557.00;10499449;28;20058;-61
2021/09/16 07:28:57;;;;;;;7.47;4.47;;;;;;;15.03;100.00;101565.19;10498473;28;20055;-60
2021/09/16 07:33:59;;;;;;;5.93;3.70;;;;;;;15.70;100.00;101567.03;10498417;28;20059;-60
2021/09/16 07:39:02;;;;;;;6.68;4.57;;;;;;;16.33;98.31;101556.63;10497886;28;20484;-60
2021/09/16 07:44:05;;;;;;;5.22;3.55;;;;;;;16.69;95.93;101565.53;10498181;28;20041;-60
2021/09/16 07:49:08;;;;;;;4.20;2.70;;;;;;;17.48;91.96;101563.38;10497591;28;20102;-62
2021/09/16 07:54:11;;;;;;;5.43;2.42;;;;;;;17.91;87.85;101554.03;10496761;28;20396;-60
2021/09/16 07:59:14;;;;;;;6.15;3.35;;;;;;;18.34;87.67;101561.28;10497532;28;20507;-62
2021/09/16 08:04:16;;;;;;;4.35;2.10;;;;;;;18.32;86.47;101564.06;10497815;28;20052;-60
2021/09/16 08:09:19;;;;;;;3.90;1.58;;;;;;;18.71;83.98;101556.59;10497935;28;20052;-60
2021/09/16 08:14:22;;;;;;;3.78;1.77;;;;;;;19.00;79.32;101556.09;10497987;28;20047;-60
2021/09/16 08:19:24;;;;;;;2.65;2.15;;;;;;;18.84;81.98;101556.47;10497464;28;20048;-61
2021/09/16 08:24:27;;;;;;;5.95;2.00;;;;;;;18.52;83.38;101564.31;10496752;28;20071;-61
2021/09/16 08:29:30;;;;;;;5.97;1.90;;;;;;;19.74;80.83;101571.25;10496903;28;20059;-61
2021/09/16 08:34:35;;;;;;;5.60;1.77;;;;;;;20.22;79.15;101559.25;10497683;28;20044;-60
2021/09/16 08:39:37;;;;;;;7.45;2.55;;;;;;;19.97;75.78;101572.00;10497011;28;20053;-60
2021/09/16 08:44:42;;;;;;;3.28;1.70;;;;;;;19.58;80.08;101578.81;10496992;28;20055;-60
2021/09/16 08:49:45;;;;;;;2.78;1.38;;;;;;;20.58;77.16;101575.66;10496773;28;20044;-61
2021/09/16 08:54:48;;;;;;;3.75;1.48;;;;;;;20.05;78.92;101581.94;10496551;28;20051;-61
2021/09/16 08:59:51;;;;;;;3.35;1.48;;;;;;;19.74;75.17;101581.88;10498119;28;20051;-60
2021/09/16 09:04:53;;;;;;;2.50;1.30;;;;;;;19.33;76.78;101586.13;10503890;28;20056;-61
2021/09/16 09:09:56;;;;;;;5.15;2.13;;;;;;;20.50;74.86;101581.63;10503311;28;20405;-60
2021/09/16 09:14:58;;;;;;;7.82;1.30;;;;;;;21.26;70.05;101586.44;10504423;28;20048;-61
2021/09/16 09:20:08;;;;;;;5.20;1.52;;;;;;;21.00;69.28;101574.63;10503021;28;20488;-60
2021/09/16 09:25:13;;;;;;;6.30;1.73;;;;;;;22.21;67.42;101587.50;10503422;28;20436;-61
2021/09/16 09:30:26;;;;;;;5.35;1.75;;;;;;;22.59;69.36;101588.41;10502875;28;20073;-60
2021/09/16 09:35:34;;;;;;;3.08;1.48;;;;;;;22.95;63.96;101587.63;10503247;28;20044;-60
2021/09/16 09:40:39;;;;;;;7.47;1.70;;;;;;;22.98;66.29;101590.84;10502401;28;20057;-61
2021/09/16 09:46:10;;;;;;;2.88;1.70;;;;;;;21.58;66.92;101598.69;10503045;28;20044;-61
2021/09/16 09:51:14;;;;;;;9.60;1.50;;;;;;;21.37;68.17;101603.28;10498569;28;20056;-60
2021/09/16 09:56:20;;;;;;;4.32;1.65;;;;;;;21.42;67.15;101609.06;10502312;28;20056;-61
2021/09/16 10:01:31;;;;;;;5.47;1.55;;;;;;;23.20;66.72;101604.78;10501614;28;20049;-61
2021/09/16 10:06:35;;;;;;;9.35;2.03;;;;;;;22.93;67.31;101595.78;10501923;28;20098;-61
2021/09/16 10:11:46;;;;;;;1.80;0.80;;;;;;;22.25;66.53;101601.41;10500664;28;20048;-61
2021/09/16 10:16:48;;;;;;;;;;;;;;;23.08;63.01;101600.63;10501392;28;20511;-61
2021/09/16 10:21:51;;;;;;;4.32;1.42;;;;;;;23.26;62.03;101609.50;10500691;28;19927;-61
2021/09/16 10:26:53;;;;;;;3.45;1.45;;;;;;;23.29;58.29;101611.88;10500883;28;20049;-60
2021/09/16 10:32:08;;;;;;;3.20;1.02;;;;;;;23.68;60.70;101605.38;10500624;28;20044;-59
2021/09/16 10:37:12;;;;;;;3.67;1.35;;;;;;;22.41;62.72;101598.16;10499993;28;20488;-59
2021/09/16 10:42:15;;;;;;;4.53;1.35;;;;;;;21.55;64.85;101606.97;10499033;28;20045;-59
2021/09/16 10:47:23;;;;;;;4.40;1.52;;;;;;;22.86;59.62;101597.34;10499833;28;20056;-60
2021/09/16 10:52:26;;;;;;;3.50;1.27;;;;;;;23.49;59.01;101596.53;10499919;28;20044;-59
2021/09/16 10:57:38;;;;;;;4.30;1.30;;;;;;;22.91;60.11;101592.41;10499350;28;20511;-59
2021/09/16 11:02:43;;;;;;;7.88;2.65;;;;;;;22.73;59.61;101597.72;10499191;28;20044;-59
2021/09/16 11:07:49;;;;;;;2.50;1.35;;;;;;;22.95;56.61;101593.81;10498701;28;20477;-60
2021/09/16 11:12:56;;;;;;;3.63;1.27;;;;;;;22.95;56.90;101580.47;10499588;28;20102;-59
2021/09/16 11:18:13;;;;;;;2.85;1.10;;;;;;;24.74;53.62;101588.34;10498769;28;20071;-60
2021/09/16 11:23:18;;;;;;;5.00;1.20;;;;;;;23.99;53.20;101589.78;10498075;28;20048;-60
2021/09/16 11:28:20;;;;;;;3.45;1.33;;;;;;;24.28;52.52;101589.44;10497190;28;20055;-60
2021/09/16 11:33:23;;;;;;;3.72;0.90;;;;;;;23.57;54.95;101598.47;10498951;28;20377;-60
2021/09/16 11:38:26;;;;;;;3.35;1.20;;;;;;;24.31;55.12;101596.31;10498023;28;20136;-60
2021/09/16 11:43:29;;;;;;;3.00;1.10;;;;;;;23.65;55.57;101617.22;10498392;28;20041;-60
2021/09/16 11:48:31;;;;;;;4.53;1.23;;;;;;;23.03;55.27;101608.22;10498145;28;20056;-60
2021/09/16 11:53:36;;;;;;;8.00;1.00;;;;;;;25.22;53.99;101605.53;10498106;28;20060;-60
2021/09/16 11:58:39;;;;;;;4.88;1.17;;;;;;;23.48;55.24;101608.22;10497625;28;20056;-60
2021/09/16 12:03:43;;;;;;;1.73;0.93;;;;;;;25.05;52.39;101612.72;10497701;28;20048;-60
2021/09/16 12:08:47;;;;;;;2.10;0.95;;;;;;;22.39;58.77;101610.78;10496181;28;20048;-60
2021/09/16 12:13:53;;;;;;;5.35;1.10;;;;;;;23.16;60.45;101606.91;10497464;28;20194;-60
2021/09/16 12:19:04;;;;;;;2.45;1.45;;;;;;;23.08;57.84;101608.66;10497427;28;20060;-59
2021/09/16 12:24:15;;;;;;;2.67;1.25;;;;;;;23.57;53.64;101606.47;10497786;28;20075;-60
2021/09/16 12:29:23;;;;;;;1.95;1.20;;;;;;;25.06;51.21;101603.66;10497001;28;20060;-60
2021/09/16 12:34:39;;;;;;;1.08;0.75;;;;;;;22.88;53.47;101610.56;10498860;28;20055;-59
2021/09/16 12:39:49;;;;;;;2.13;0.82;;;;;;;22.38;56.75;101609.94;10504879;28;20048;-60
2021/09/16 12:44:52;;;;;;;3.72;1.27;;;;;;;21.57;60.63;101605.03;10504654;28;20506;-60
2021/09/16 12:49:54;;;;;;;3.15;0.88;;;;;;;21.87;60.88;101601.34;10504270;28;20487;-59
2021/09/16 12:55:02;;;;;;;2.20;1.90;;;;;;;23.93;55.05;101601.09;10504213;28;20485;-60
2021/09/16 13:00:07;;;;;;;1.20;0.82;;;;;;;24.53;52.12;101586.91;10503852;28;20489;-60
2021/09/16 13:05:23;;;;;;;2.28;1.02;;;;;;;23.09;55.95;101597.00;10503767;28;20516;-60
2021/09/16 13:10:26;;;;;;;2.80;0.75;;;;;;;22.28;58.03;101595.81;10503444;28;20511;-60
2021/09/16 13:15:28;;;;;;;2.45;1.17;;;;;;;22.88;59.08;101591.88;10503628;28;20385;-60
2021/09/16 13:20:31;;;;;;;3.85;1.20;;;;;;;23.06;56.51;101592.78;10503343;28;20049;-60
2021/09/16 13:25:35;;;;;;;2.08;0.85;;;;;;;23.85;53.86;101591.16;10502961;28;20055;-60
2021/09/16 13:30:37;;;;;;;2.28;0.95;;;;;;;22.62;58.36;101588.06;10502586;28;20404;-60
2021/09/16 13:35:40;;;;;;;12.05;2.08;;;;;;;22.20;58.19;101585.00;10503223;28;20072;-60
2021/09/16 13:40:43;;;;;;;1.85;0.90;;;;;;;22.89;54.63;101575.72;10503188;28;20080;-60
2021/09/16 13:45:45;;;;;;;3.78;2.20;;;;;;;21.98;58.49;101571.00;10502399;28;20053;-60
2021/09/16 13:50:48;;;;;;;4.03;1.13;;;;;;;23.04;56.22;101581.38;10502103;28;20059;-60
2021/09/16 13:55:50;;;;;;;3.03;1.00;;;;;;;23.12;59.06;101576.16;10501882;28;20492;-60
2021/09/16 14:00:53;;;;;;;10.15;1.98;;;;;;;23.62;54.87;101577.44;10501613;28;20393;-60
2021/09/16 14:05:56;;;;;;;9.27;1.45;;;;;;;22.96;59.81;101576.81;10502102;28;20090;-60
2021/09/16 14:10:58;;;;;;;4.05;1.27;;;;;;;22.22;61.48;101575.84;10501008;28;20074;-60
2021/09/16 14:16:01;;;;;;;3.55;2.25;;;;;;;22.27;64.28;101583.41;10501733;28;20106;-60
2021/09/16 14:21:04;;;;;;;3.53;1.52;;;;;;;21.33;66.76;101578.75;10500786;28;20044;-60
2021/09/16 14:26:06;;;;;;;4.50;2.35;;;;;;;21.77;64.77;101578.34;10500679;28;20051;-60
2021/09/16 14:31:09;;;;;;;1.33;1.10;;;;;;;24.33;60.63;101567.56;10500258;28;20045;-60
2021/09/16 14:36:18;;;;;;;4.72;1.20;;;;;;;23.39;57.13;101573.56;10500529;28;20058;-59
2021/09/16 14:41:20;;;;;;;2.00;1.10;;;;;;;23.59;55.36;101566.19;10500135;28;20052;-60
2021/09/16 14:46:23;;;;;;;6.65;1.77;;;;;;;22.62;60.93;101561.38;10499859;28;20060;-60
2021/09/16 14:51:26;;;;;;;5.95;1.30;;;;;;;22.70;60.22;101565.16;10499799;28;20055;-59
2021/09/16 14:56:28;;;;;;;2.55;1.35;;;;;;;20.89;65.45;101571.13;10499734;28;20049;-59
2021/09/16 15:01:31;;;;;;;3.20;1.08;;;;;;;21.45;65.44;101564.34;10499156;28;20052;-60
2021/09/16 15:06:35;;;;;;;5.85;1.95;;;;;;;20.89;65.99;101565.81;10499648;28;20048;-59
2021/09/16 15:11:38;;;;;;;2.22;1.13;;;;;;;21.43;66.57;101568.94;10498917;28;20408;-60
2021/09/16 15:16:40;;;;;;;1.33;1.08;;;;;;;21.05;65.23;101561.78;10499279;28;20133;-59
2021/09/16 15:21:43;;;;;;;3.45;1.27;;;;;;;20.27;70.11;101567.66;10498464;28;20105;-59
2021/09/16 15:26:45;;;;;;;4.15;1.60;;;;;;;22.11;64.98;101573.38;10498608;28;20048;-59
2021/09/16 15:31:49;;;;;;;1.27;1.10;;;;;;;21.60;63.31;101571.91;10498401;28;20064;-60
2021/09/16 15:37:00;;;;;;;2.50;1.40;;;;;;;21.96;63.35;101566.81;10498073;28;20506;-60
2021/09/16 15:42:04;;;;;;;2.88;1.60;;;;;;;21.41;66.15;101557.59;10498320;28;20044;-60
2021/09/16 15:47:07;;;;;;;2.28;1.70;;;;;;;21.04;63.63;101563.59;10496941;28;20055;-60
2021/09/16 15:52:10;;;;;;;1.80;1.50;;;;;;;20.65;65.78;101571.50;10497961;28;20484;-59
2021/09/16 15:57:12;;;;;;;2.55;1.92;;;;;;;20.50;68.68;101570.97;10497709;28;20048;-60
2021/09/16 16:02:15;;;;;;;2.53;1.60;;;;;;;20.41;70.98;101574.47;10498127;28;20052;-59
2021/09/16 16:07:18;;;;;;;13.85;2.08;;;;;;;20.30;74.09;101575.38;10497788;28;20048;-59
2021/09/16 16:12:20;;;;;;;3.95;1.90;;;;;;;19.94;76.06;101580.22;10503517;28;20052;-60
2021/09/16 16:17:23;;;;;;;2.00;1.42;;;;;;;20.42;73.60;101581.44;10505719;28;20063;-60
2021/09/16 16:22:25;;;;;;;3.88;2.08;;;;;;;20.23;75.05;101575.06;10506009;28;20045;-59
2021/09/16 16:27:28;;;;;;;1.90;1.80;;;;;;;20.00;76.52;101571.72;10505406;28;20051;-59
2021/09/16 16:32:30;;;;;;;7.43;2.08;;;;;;;19.93;75.86;101577.69;10505275;28;20404;-59
2021/09/16 16:37:34;;;;;;;6.22;2.15;;;;;;;19.52;80.61;101582.81;10505000;28;20048;-59
2021/09/16 16:42:37;;;;;;;2.42;1.73;;;;;;;18.97;85.62;101582.88;10505148;28;20040;-58
2021/09/16 16:47:43;;;;;;;4.38;1.60;;;;;;;18.94;87.71;101585.75;10504595;28;20098;-59
2021/09/16 16:52:47;;;;;;;4.03;1.75;;;;;;;18.62;93.02;101588.31;10505337;28;20072;-59
2021/09/16 16:57:49;;;;;;;3.03;1.85;;;;;;;18.39;93.91;101588.28;10504238;28;20499;-59
2021/09/16 17:02:52;;;;;;;4.47;1.50;;;;;;;18.19;95.91;101584.56;10503730;28;20504;-59
2021/09/16 17:08:02;;;;;;;4.88;1.52;;;;;;;17.93;99.05;101584.75;10503801;28;20052;-59
2021/09/16 17:13:04;;;;;;;2.78;2.17;;;;;;;17.98;97.02;101587.88;10503842;28;20048;-58
2021/09/16 17:18:07;;;;;;;3.30;1.92;;;;;;;17.43;100.00;101587.56;10503599;28;20059;-59
2021/09/16 17:23:10;;;;;;;6.35;2.70;;;;;;;17.41;100.00;101593.91;10503689;28;20559;-59
2021/09/16 17:28:12;;;;;;;6.00;3.03;;;;;;;17.47;99.61;101588.19;10502934;28;20400;-58
2021/09/16 17:33:15;;;;;;;5.25;2.65;;;;;;;17.20;100.00;101591.88;10502879;28;20051;-59
2021/09/16 17:38:18;;;;;;;4.25;2.50;;;;;;;17.11;100.00;101589.91;10502670;28;20048;-59
2021/09/16 17:43:20;;;;;;;9.75;3.00;;;;;;;16.94;100.00;101588.47;10502522;28;20045;-59
2021/09/16 17:48:23;;;;;;;3.25;2.95;;;;;;;16.83;100.00;101598.97;10501900;28;20044;-59
2021/09/16 17:53:26;;;;;;;3.83;3.20;;;;;;;16.70;100.00;101602.47;10502539;28;20056;-59
2021/09/16 17:58:28;;;;;;;4.18;2.75;;;;;;;16.58;100.00;101602.50;10502126;28;20052;-59
2021/09/16 18:03:31;;;;;;;4.35;2.70;;;;;;;16.37;100.00;101610.09;10501677;28;20493;-60
2021/09/16 18:08:33;;;;;;;3.20;2.90;;;;;;;16.43;100.00;101609.69;10501324;28;20484;-60
2021/09/16 18:13:36;;;;;;;5.70;3.58;;;;;;;16.22;100.00;101609.34;10501922;28;20044;-60
2021/09/16 18:18:39;;;;;;;5.18;4.00;;;;;;;16.03;100.00;101615.06;10500993;28;20048;-59
2021/09/16 18:23:45;;;;;;;4.30;3.88;;;;;;;15.93;100.00;101617.47;10501244;28;20055;-60
2021/09/16 18:28:48;;;;;;;4.68;4.15;;;;;;;15.92;100.00;101618.41;10500369;28;20060;-59
2021/09/16 18:33:50;;;;;;;4.35;3.95;;;;;;;15.79;100.00;101626.31;10499878;28;20049;-59
2021/09/16 18:38:53;;;;;;;8.93;4.70;;;;;;;16.07;100.00;101627.09;10500189;28;20052;-60
2021/09/16 18:43:56;;;;;;;5.97;5.45;;;;;;;15.69;100.00;101636.59;10500135;28;20041;-58
2021/09/16 18:48:58;;;;;;;6.10;5.57;;;;;;;15.61;100.00;101639.72;10498720;28;20055;-60
2021/09/16 18:54:00;;;;;;;9.15;5.70;;;;;;;15.69;100.00;101641.03;10499798;28;20524;-60
2021/09/16 18:59:04;;;;;;;8.70;7.43;;;;;;;15.66;100.00;101635.94;10499478;28;20044;-60
2021/09/16 19:04:06;;;;;;;7.43;5.82;;;;;;;15.43;100.00;101646.19;10499726;28;20040;-59
2021/09/16 19:09:09;;;;;;;8.70;6.50;;;;;;;15.44;100.00;101650.53;10498947;28;20515;-59
2021/09/16 19:14:11;;;;;;;8.52;6.40;;;;;;;15.42;100.00;101655.06;10499080;28;20048;-59
2021/09/16 19:19:14;;;;;;;9.55;6.30;;;;;;;15.23;100.00;101658.00;10497623;28;20093;-60
2021/09/16 19:24:17;;;;;;;11.18;8.60;;;;;;;15.17;100.00;101658.44;10498554;28;20404;-59
2021/09/16 19:29:39;;;;;;;8.25;7.30;;;;;;;15.15;100.00;101662.97;10498857;28;20048;-59
2021/09/16 19:34:42;;;;;;;8.88;7.97;;;;;;;15.36;100.00;101650.19;10498499;28;20052;-59
2021/09/16 19:39:45;;;;;;;13.75;10.60;;;;;;;15.01;100.00;101648.84;10498012;28;20045;-60
2021/09/16 19:44:47;;;;;;;11.82;10.68;;;;;;;14.90;100.00;101658.38;10497547;28;20044;-59
2021/09/16 19:49:50;;;;;;;10.82;9.23;;;;;;;15.02;100.00;101661.06;10498555;28;20048;-59
2021/09/16 19:54:52;;;;;;;19.30;11.10;;;;;;;14.71;100.00;101658.63;10498048;28;20056;-59
2021/09/16 19:59:55;;;;;;;22.50;10.93;;;;;;;14.57;100.00;101664.72;10498310;28;20059;-60
2021/09/16 20:04:57;;;;;;;11.63;10.00;;;;;;;14.75;100.00;101663.63;10498287;28;20046;-59
2021/09/16 20:10:00;;;;;;;14.25;10.95;;;;;;;14.60;100.00;101668.03;10497438;28;20432;-58
2021/09/16 20:15:04;;;;;;;23.13;11.77;;;;;;;14.62;100.00;101662.69;10498000;28;20040;-60
2021/09/16 20:20:08;;;;;;;13.13;11.68;;;;;;;14.41;100.00;101675.34;10497338;28;20102;-59
2021/09/16 20:25:12;;;;;;;18.35;12.15;;;;;;;14.42;100.00;101674.38;10498194;28;20048;-59
2021/09/16 20:30:15;;;;;;;14.10;12.27;;;;;;;14.27;100.00;101674.38;10497101;28;20078;-60
2021/09/16 20:35:18;;;;;;;19.25;13.88;;;;;;;14.50;100.00;101670.34;10497554;28;20059;-60
2021/09/16 20:40:20;;;;;;;17.45;13.90;;;;;;;14.36;100.00;101678.25;10497117;28;20052;-59
2021/09/16 20:45:23;;;;;;;18.25;13.73;;;;;;;14.35;100.00;101683.59;10497099;28;20400;-60
2021/09/16 20:50:26;;;;;;;17.08;15.18;;;;;;;14.24;100.00;101681.59;10497011;28;20044;-60
2021/09/16 20:55:28;;;;;;;22.90;17.55;;;;;;;14.15;100.00;101690.88;10498544;28;20046;-60
2021/09/16 21:00:31;;;;;;;24.38;19.25;;;;;;;14.24;100.00;101687.72;10504763;28;20059;-59
2021/09/16 21:05:33;;;;;;;30.90;21.52;;;;;;;14.23;100.00;101695.72;10504379;28;20059;-59
2021/09/16 21:10:39;;;;;;;25.23;20.27;;;;;;;14.07;100.00;101693.09;10503674;28;20045;-60
2021/09/16 21:15:42;;;;;;;37.05;24.10;;;;;;;14.18;100.00;101703.03;10504093;28;20048;-59
2021/09/16 21:20:46;;;;;;;34.78;24.40;;;;;;;14.13;100.00;101693.59;10503540;28;20053;-60
2021/09/16 21:25:49;;;;;;;33.97;26.40;;;;;;;14.33;100.00;101699.50;10503814;28;20059;-60
2021/09/16 21:30:51;;;;;;;37.85;28.98;;;;;;;14.54;100.00;101700.03;10503137;28;20058;-59
2021/09/16 21:35:54;;;;;;;31.77;27.55;;;;;;;14.54;100.00;101702.66;10503791;28;20053;-59
2021/09/16 21:40:56;;;;;;;36.13;28.38;;;;;;;14.65;100.00;101700.22;10502521;28;20071;-60
2021/09/16 21:45:59;;;;;;;36.95;28.13;;;;;;;14.73;100.00;101706.84;10503201;28;20051;-60
2021/09/16 21:51:01;;;;;;;43.20;30.58;;;;;;;14.77;100.00;101703.06;10502240;28;20060;-60
2021/09/16 21:56:04;;;;;;;42.53;33.33;;;;;;;15.13;100.00;101697.34;10502800;28;20048;-60
2021/09/16 22:01:07;;;;;;;47.13;34.53;;;;;;;15.17;100.00;101696.19;10501629;28;20052;-60
2021/09/16 22:06:09;;;;;;;47.42;35.90;;;;;;;14.73;100.00;101702.41;10501489;28;20054;-58
2021/09/16 22:11:12;;;;;;;41.53;33.63;;;;;;;14.73;100.00;101702.41;10500686;28;20059;-59
2021/09/16 22:16:15;;;;;;;49.30;35.72;;;;;;;14.86;100.00;101686.69;10501385;28;20084;-59
2021/09/16 22:21:18;;;;;;;48.53;35.20;;;;;;;14.62;100.00;101691.66;10500858;28;20504;-59
2021/09/16 22:26:21;;;;;;;45.35;33.65;;;;;;;14.48;100.00;101695.94;10500814;28;20503;-58
2021/09/16 22:31:23;;;;;;;47.35;34.38;;;;;;;14.35;100.00;101694.13;10500654;28;20051;-59
2021/09/16 22:36:26;;;;;;;40.47;32.95;;;;;;;14.37;100.00;101697.53;10499201;28;20553;-59
2021/09/16 22:41:28;;;;;;;48.40;36.05;;;;;;;14.17;100.00;101703.97;10500037;28;20493;-59
2021/09/16 22:46:31;;;;;;;54.90;36.33;;;;;;;14.18;100.00;101703.03;10500169;28;20048;-60
2021/09/16 22:51:33;;;;;;;47.25;34.33;;;;;;;14.06;100.00;101702.78;10499862;28;20064;-59
2021/09/16 22:56:36;;;;;;;45.42;32.78;;;;;;;14.14;100.00;101702.38;10499686;28;20048;-59
2021/09/16 23:01:38;;;;;;;56.95;37.92;;;;;;;14.02;100.00;101701.28;10499630;28;20059;-60